createdAt,value
2023-03-08T00:02:59.320Z,7.20
2023-03-08T00:13:03.917Z,6.73
2023-03-08T00:23:06.982Z,5.60
2023-03-08T00:33:11.128Z,5.70
2023-03-08T00:43:14.408Z,5.20
2023-03-08T00:53:19.130Z,3.50
2023-03-08T01:03:22.952Z,3.63
2023-03-08T01:13:28.994Z,4.03
2023-03-08T01:23:32.179Z,4.10
2023-03-08T01:33:37.594Z,4.23
2023-03-08T01:43:45.453Z,3.90
2023-03-08T01:53:50.328Z,4.47
2023-03-08T02:03:53.432Z,4.10
2023-03-08T02:13:58.451Z,5.50
2023-03-08T02:24:07.908Z,4.40
2023-03-08T02:34:11.131Z,5.87
2023-03-08T02:44:15.342Z,5.97
2023-03-08T02:54:18.579Z,5.67
2023-03-08T03:04:23.154Z,5.00
2023-03-08T03:14:28.978Z,6.00
2023-03-08T03:24:36.574Z,6.87
2023-03-08T03:34:41.874Z,5.87
2023-03-08T03:44:47.282Z,6.10
2023-03-08T03:54:55.298Z,5.93
2023-03-08T04:05:01.419Z,7.00
2023-03-08T04:15:11.404Z,5.77
2023-03-08T04:25:16.588Z,7.90
2023-03-08T04:35:26.360Z,7.20
2023-03-08T04:45:32.373Z,6.00
2023-03-08T04:55:39.404Z,5.27
2023-03-08T05:05:48.177Z,4.30
2023-03-08T05:15:51.801Z,3.87
2023-03-08T05:25:58.529Z,3.70
2023-03-08T05:36:01.722Z,3.33
2023-03-08T05:46:08.754Z,3.60
2023-03-08T05:56:18.970Z,4.25
2023-03-08T06:06:45.260Z,4.80
2023-03-08T06:16:49.050Z,4.80
2023-03-08T06:26:56.683Z,4.60
2023-03-08T06:37:00.741Z,6.17
2023-03-08T06:47:05.783Z,7.10
2023-03-08T06:57:08.765Z,8.10
2023-03-08T07:07:13.500Z,7.70
2023-03-08T07:17:16.590Z,8.30
2023-03-08T07:27:46.157Z,8.87
2023-03-08T07:37:49.746Z,8.70
2023-03-08T07:47:55.112Z,9.57
2023-03-08T07:57:58.211Z,9.33
2023-03-08T08:08:03.618Z,10.13
2023-03-08T08:18:08.447Z,9.60
2023-03-08T08:28:12.714Z,11.00
2023-03-08T08:38:16.178Z,12.63
2023-03-08T08:48:21.502Z,12.73
2023-03-08T08:58:26.853Z,11.80
2023-03-08T09:08:34.630Z,14.33
2023-03-08T09:19:04.094Z,13.47
2023-03-08T09:29:09.472Z,14.23
2023-03-08T09:39:15.115Z,15.47
2023-03-08T10:01:39.298Z,14.90
2023-03-08T10:11:48.725Z,15.97
2023-03-08T10:21:56.341Z,14.00
2023-03-08T10:31:59.185Z,12.73
2023-03-08T10:42:16.384Z,14.10
2023-03-08T10:52:26.314Z,13.50
2023-03-08T11:02:30.730Z,14.40
2023-03-08T11:12:33.860Z,17.70
2023-03-08T11:23:00.133Z,12.07
2023-03-08T11:33:22.761Z,13.00
2023-03-08T11:43:54.412Z,13.40
2023-03-08T11:54:09.495Z,11.80
2023-03-08T12:04:19.927Z,10.30
2023-03-08T12:14:28.045Z,9.97
2023-03-08T12:24:48.942Z,10.07
2023-03-08T12:35:04.477Z,9.43
2023-03-08T12:45:31.046Z,10.23
2023-03-08T12:55:34.622Z,11.20
2023-03-08T13:05:40.514Z,10.50
2023-03-08T13:15:43.155Z,9.27
2023-03-08T13:26:00.181Z,8.90
2023-03-08T13:36:05.344Z,9.00
2023-03-08T13:46:16.653Z,9.57
2023-03-08T13:56:24.921Z,8.80
2023-03-08T14:06:31.216Z,7.27
2023-03-08T14:16:37.257Z,7.77
2023-03-08T14:26:42.090Z,6.07
2023-03-08T14:36:53.168Z,6.37
2023-03-08T14:47:00.513Z,6.50
2023-03-08T14:57:17.361Z,6.20
2023-03-08T15:07:24.770Z,6.97
2023-03-08T15:17:28.110Z,7.23
2023-03-08T15:27:34.864Z,7.37
2023-03-08T15:37:37.836Z,6.93
2023-03-08T15:47:43.141Z,7.00
2023-03-08T15:57:46.674Z,6.77
2023-03-08T16:07:55.418Z,7.33
2023-03-08T16:18:25.547Z,6.37
2023-03-08T16:38:36.108Z,7.33
2023-03-08T16:48:40.080Z,7.30
2023-03-08T16:58:42.917Z,8.00
2023-03-08T17:08:48.030Z,8.43
2023-03-08T17:18:52.707Z,12.17
2023-03-08T17:28:57.324Z,13.67
2023-03-08T17:39:00.235Z,14.70
2023-03-08T17:49:04.965Z,13.27
2023-03-08T17:59:13.883Z,11.87
2023-03-08T18:09:18.104Z,11.77
2023-03-08T18:19:21.172Z,13.73
2023-03-08T18:29:25.890Z,13.60
2023-03-08T18:39:54.427Z,14.93
2023-03-08T18:49:58.939Z,19.77
2023-03-08T19:00:03.142Z,19.37
2023-03-08T19:10:14.941Z,22.93
2023-03-08T19:20:19.466Z,21.77
2023-03-08T19:30:26.432Z,19.97
2023-03-08T19:40:29.750Z,19.70
2023-03-08T19:50:33.929Z,20.23
2023-03-08T20:00:36.909Z,19.73
2023-03-08T20:10:41.365Z,22.40
2023-03-08T20:20:47.861Z,20.90
2023-03-08T20:30:52.774Z,21.33
2023-03-08T20:41:02.795Z,22.07
2023-03-08T20:51:10.056Z,15.87
2023-03-08T21:01:15.391Z,21.77
2023-03-08T21:11:21.127Z,19.87
2023-03-08T21:21:27.784Z,24.00
2023-03-08T21:31:34.237Z,26.17
2023-03-08T21:41:40.527Z,26.80
2023-03-08T21:51:46.130Z,25.00
2023-03-08T22:01:50.898Z,27.40
2023-03-08T22:11:56.911Z,24.17
2023-03-08T22:22:00.976Z,26.20
2023-03-08T22:32:09.204Z,22.40
2023-03-08T22:42:12.301Z,23.87
2023-03-08T22:52:16.502Z,26.63
2023-03-08T23:02:19.814Z,23.33
2023-03-08T23:12:25.342Z,23.57
2023-03-08T23:22:29.059Z,17.83
2023-03-08T23:32:34.522Z,12.33
2023-03-08T23:42:38.329Z,12.40
2023-03-08T23:52:43.208Z,15.00
